sensor_id;sensor_type;location;lat;lon;timestamp;temperature;humidity
19943;DHT22;10133;50.956;17.276;2023-02-18T00:00:29;8.40;99.90
19943;DHT22;10133;50.956;17.276;2023-02-18T00:02:56;8.40;99.90
19943;DHT22;10133;50.956;17.276;2023-02-18T00:05:23;8.30;99.90
19943;DHT22;10133;50.956;17.276;2023-02-18T00:07:50;8.30;99.90
19943;DHT22;10133;50.956;17.276;2023-02-18T00:10:17;8.30;99.90
19943;DHT22;10133;50.956;17.276;2023-02-18T00:12:44;8.20;99.90
19943;DHT22;10133;50.956;17.276;2023-02-18T00:15:11;8.20;99.90
19943;DHT22;10133;50.956;17.276;2023-02-18T00:17:38;8.20;99.90
19943;DHT22;10133;50.956;17.276;2023-02-18T00:20:06;8.10;99.90
19943;DHT22;10133;50.956;17.276;2023-02-18T00:22:33;8.10;99.90
19943;DHT22;10133;50.956;17.276;2023-02-18T00:25:00;8.10;99.90
19943;DHT22;10133;50.956;17.276;2023-02-18T00:27:27;8.00;99.90
19943;DHT22;10133;50.956;17.276;2023-02-18T00:29:54;8.00;99.90
19943;DHT22;10133;50.956;17.276;2023-02-18T00:32:21;8.00;99.90
19943;DHT22;10133;50.956;17.276;2023-02-18T00:34:48;7.90;99.90
19943;DHT22;10133;50.956;17.276;2023-02-18T00:37:15;7.90;99.90
19943;DHT22;10133;50.956;17.276;2023-02-18T00:39:42;7.90;99.90
19943;DHT22;10133;50.956;17.276;2023-02-18T00:42:10;7.80;99.90
19943;DHT22;10133;50.956;17.276;2023-02-18T00:44:37;7.80;99.90
19943;DHT22;10133;50.956;17.276;2023-02-18T00:47:04;7.70;99.90
19943;DHT22;10133;50.956;17.276;2023-02-18T00:49:30;7.70;99.90
19943;DHT22;10133;50.956;17.276;2023-02-18T00:51:57;7.70;99.90
19943;DHT22;10133;50.956;17.276;2023-02-18T00:54:24;7.70;99.90
19943;DHT22;10133;50.956;17.276;2023-02-18T00:56:51;7.60;99.90
19943;DHT22;10133;50.956;17.276;2023-02-18T00:59:18;7.50;99.90
19943;DHT22;10133;50.956;17.276;2023-02-18T01:01:45;7.50;99.90
19943;DHT22;10133;50.956;17.276;2023-02-18T01:04:12;7.60;99.90
19943;DHT22;10133;50.956;17.276;2023-02-18T01:06:39;7.40;99.90
19943;DHT22;10133;50.956;17.276;2023-02-18T01:09:06;7.40;99.90
19943;DHT22;10133;50.956;17.276;2023-02-18T01:11:33;7.30;99.90
19943;DHT22;10133;50.956;17.276;2023-02-18T01:14:00;7.30;99.90
19943;DHT22;10133;50.956;17.276;2023-02-18T01:16:27;7.20;99.90
19943;DHT22;10133;50.956;17.276;2023-02-18T01:18:54;7.20;99.90
19943;DHT22;10133;50.956;17.276;2023-02-18T01:21:20;7.10;99.90
19943;DHT22;10133;50.956;17.276;2023-02-18T01:23:48;7.10;99.90
19943;DHT22;10133;50.956;17.276;2023-02-18T01:26:15;7.00;99.90
19943;DHT22;10133;50.956;17.276;2023-02-18T01:28:42;6.90;99.90
19943;DHT22;10133;50.956;17.276;2023-02-18T01:31:11;7.00;99.90
19943;DHT22;10133;50.956;17.276;2023-02-18T01:33:39;7.00;99.90
19943;DHT22;10133;50.956;17.276;2023-02-18T01:36:07;6.80;99.90
19943;DHT22;10133;50.956;17.276;2023-02-18T01:38:35;6.90;99.90
19943;DHT22;10133;50.956;17.276;2023-02-18T01:41:02;6.80;99.90
19943;DHT22;10133;50.956;17.276;2023-02-18T01:43:29;6.80;99.90
19943;DHT22;10133;50.956;17.276;2023-02-18T01:46:02;6.80;99.90
19943;DHT22;10133;50.956;17.276;2023-02-18T01:48:31;6.70;99.90
19943;DHT22;10133;50.956;17.276;2023-02-18T01:51:04;6.70;99.90
19943;DHT22;10133;50.956;17.276;2023-02-18T01:53:40;6.70;99.90
19943;DHT22;10133;50.956;17.276;2023-02-18T01:56:12;6.60;99.90
19943;DHT22;10133;50.956;17.276;2023-02-18T01:58:42;6.60;99.90
19943;DHT22;10133;50.956;17.276;2023-02-18T02:01:09;6.50;99.90
19943;DHT22;10133;50.956;17.276;2023-02-18T02:03:36;6.50;99.90
19943;DHT22;10133;50.956;17.276;2023-02-18T02:06:09;6.50;99.90
19943;DHT22;10133;50.956;17.276;2023-02-18T02:08:38;6.50;99.90
19943;DHT22;10133;50.956;17.276;2023-02-18T02:11:23;6.60;99.90
19943;DHT22;10133;50.956;17.276;2023-02-18T02:16:57;6.50;99.90
19943;DHT22;10133;50.956;17.276;2023-02-18T02:25:07;6.50;99.90
19943;DHT22;10133;50.956;17.276;2023-02-18T02:36:55;6.50;99.90
19943;DHT22;10133;50.956;17.276;2023-02-18T02:44:43;6.50;99.90
19943;DHT22;10133;50.956;17.276;2023-02-18T02:47:20;6.40;99.90
19943;DHT22;10133;50.956;17.276;2023-02-18T02:50:23;6.40;99.90
19943;DHT22;10133;50.956;17.276;2023-02-18T02:52:57;6.40;99.90
19943;DHT22;10133;50.956;17.276;2023-02-18T02:55:24;6.40;99.90
19943;DHT22;10133;50.956;17.276;2023-02-18T02:57:53;6.40;99.90
19943;DHT22;10133;50.956;17.276;2023-02-18T03:06:22;6.30;99.90
19943;DHT22;10133;50.956;17.276;2023-02-18T03:12:15;6.20;99.90
19943;DHT22;10133;50.956;17.276;2023-02-18T03:18:20;6.20;99.90
19943;DHT22;10133;50.956;17.276;2023-02-18T03:24:13;6.10;99.90
19943;DHT22;10133;50.956;17.276;2023-02-18T03:26:47;6.00;99.90
19943;DHT22;10133;50.956;17.276;2023-02-18T03:29:16;6.10;99.90
19943;DHT22;10133;50.956;17.276;2023-02-18T03:31:48;6.00;99.90
19943;DHT22;10133;50.956;17.276;2023-02-18T03:34:19;5.90;99.90
19943;DHT22;10133;50.956;17.276;2023-02-18T03:36:47;5.90;99.90
19943;DHT22;10133;50.956;17.276;2023-02-18T03:39:16;5.90;99.90
19943;DHT22;10133;50.956;17.276;2023-02-18T03:41:44;6.00;99.90
19943;DHT22;10133;50.956;17.276;2023-02-18T03:44:12;5.90;99.90
19943;DHT22;10133;50.956;17.276;2023-02-18T03:46:41;5.90;99.90
19943;DHT22;10133;50.956;17.276;2023-02-18T03:49:12;5.90;99.90
19943;DHT22;10133;50.956;17.276;2023-02-18T03:51:41;5.80;99.90
19943;DHT22;10133;50.956;17.276;2023-02-18T03:54:08;5.80;99.90
19943;DHT22;10133;50.956;17.276;2023-02-18T03:56:36;5.80;99.90
19943;DHT22;10133;50.956;17.276;2023-02-18T03:59:03;5.70;99.90
19943;DHT22;10133;50.956;17.276;2023-02-18T04:01:30;5.70;99.90
19943;DHT22;10133;50.956;17.276;2023-02-18T04:03:57;5.70;99.90
19943;DHT22;10133;50.956;17.276;2023-02-18T04:06:24;5.60;99.90
19943;DHT22;10133;50.956;17.276;2023-02-18T04:08:51;5.60;99.90
19943;DHT22;10133;50.956;17.276;2023-02-18T04:11:18;5.60;99.90
19943;DHT22;10133;50.956;17.276;2023-02-18T04:13:45;5.60;99.90
19943;DHT22;10133;50.956;17.276;2023-02-18T04:16:12;5.60;99.90
19943;DHT22;10133;50.956;17.276;2023-02-18T04:18:40;5.60;99.90
19943;DHT22;10133;50.956;17.276;2023-02-18T04:21:07;5.50;99.90
19943;DHT22;10133;50.956;17.276;2023-02-18T04:23:34;5.50;99.90
19943;DHT22;10133;50.956;17.276;2023-02-18T04:26:00;5.50;99.90
19943;DHT22;10133;50.956;17.276;2023-02-18T04:28:27;5.60;99.90
19943;DHT22;10133;50.956;17.276;2023-02-18T04:30:54;5.60;99.90
19943;DHT22;10133;50.956;17.276;2023-02-18T04:33:21;5.60;99.90
19943;DHT22;10133;50.956;17.276;2023-02-18T04:35:48;5.60;99.90
19943;DHT22;10133;50.956;17.276;2023-02-18T04:38:15;5.60;99.90
19943;DHT22;10133;50.956;17.276;2023-02-18T04:40:42;5.60;99.90
19943;DHT22;10133;50.956;17.276;2023-02-18T04:43:09;5.60;99.90
19943;DHT22;10133;50.956;17.276;2023-02-18T04:45:36;5.60;99.90
19943;DHT22;10133;50.956;17.276;2023-02-18T04:48:03;5.60;99.90
19943;DHT22;10133;50.956;17.276;2023-02-18T04:50:30;5.60;99.90
19943;DHT22;10133;50.956;17.276;2023-02-18T04:52:57;5.60;99.90
19943;DHT22;10133;50.956;17.276;2023-02-18T04:55:23;5.60;99.90
19943;DHT22;10133;50.956;17.276;2023-02-18T04:57:50;5.70;99.90
19943;DHT22;10133;50.956;17.276;2023-02-18T05:00:18;5.80;99.90
19943;DHT22;10133;50.956;17.276;2023-02-18T05:02:46;5.80;99.90
19943;DHT22;10133;50.956;17.276;2023-02-18T05:05:13;5.90;99.90
19943;DHT22;10133;50.956;17.276;2023-02-18T05:07:41;6.00;99.90
19943;DHT22;10133;50.956;17.276;2023-02-18T05:10:14;6.00;99.90
19943;DHT22;10133;50.956;17.276;2023-02-18T05:12:42;6.10;99.90
19943;DHT22;10133;50.956;17.276;2023-02-18T05:15:09;6.10;99.90
19943;DHT22;10133;50.956;17.276;2023-02-18T05:17:36;6.10;99.90
19943;DHT22;10133;50.956;17.276;2023-02-18T05:20:04;6.20;99.90
19943;DHT22;10133;50.956;17.276;2023-02-18T05:22:33;6.20;99.90
19943;DHT22;10133;50.956;17.276;2023-02-18T05:25:00;6.30;99.90
19943;DHT22;10133;50.956;17.276;2023-02-18T05:27:26;6.20;99.90
19943;DHT22;10133;50.956;17.276;2023-02-18T05:29:53;6.30;99.90
19943;DHT22;10133;50.956;17.276;2023-02-18T05:32:20;6.30;99.90
19943;DHT22;10133;50.956;17.276;2023-02-18T05:34:47;6.40;99.90
19943;DHT22;10133;50.956;17.276;2023-02-18T05:37:14;6.40;99.90
19943;DHT22;10133;50.956;17.276;2023-02-18T05:39:42;6.40;99.90
19943;DHT22;10133;50.956;17.276;2023-02-18T05:42:09;6.50;99.90
19943;DHT22;10133;50.956;17.276;2023-02-18T05:44:36;6.50;99.90
19943;DHT22;10133;50.956;17.276;2023-02-18T05:47:07;6.60;99.90
19943;DHT22;10133;50.956;17.276;2023-02-18T05:49:37;6.60;99.90
19943;DHT22;10133;50.956;17.276;2023-02-18T05:52:05;6.70;99.90
19943;DHT22;10133;50.956;17.276;2023-02-18T05:54:33;6.70;99.90
19943;DHT22;10133;50.956;17.276;2023-02-18T05:57:00;6.60;99.90
19943;DHT22;10133;50.956;17.276;2023-02-18T05:59:27;6.70;99.90
19943;DHT22;10133;50.956;17.276;2023-02-18T06:01:54;6.70;99.90
19943;DHT22;10133;50.956;17.276;2023-02-18T06:04:21;6.70;99.90
19943;DHT22;10133;50.956;17.276;2023-02-18T06:06:48;6.80;99.90
19943;DHT22;10133;50.956;17.276;2023-02-18T06:09:15;6.80;99.90
19943;DHT22;10133;50.956;17.276;2023-02-18T06:11:42;6.80;99.90
19943;DHT22;10133;50.956;17.276;2023-02-18T06:14:09;6.80;99.90
19943;DHT22;10133;50.956;17.276;2023-02-18T06:16:37;6.80;99.90
19943;DHT22;10133;50.956;17.276;2023-02-18T06:19:04;6.80;99.90
19943;DHT22;10133;50.956;17.276;2023-02-18T06:21:31;6.90;99.90
19943;DHT22;10133;50.956;17.276;2023-02-18T06:23:58;6.90;99.90
19943;DHT22;10133;50.956;17.276;2023-02-18T06:26:26;6.90;99.90
19943;DHT22;10133;50.956;17.276;2023-02-18T06:28:52;6.90;99.90
19943;DHT22;10133;50.956;17.276;2023-02-18T06:31:19;7.00;99.90
19943;DHT22;10133;50.956;17.276;2023-02-18T06:33:46;7.00;99.90
19943;DHT22;10133;50.956;17.276;2023-02-18T06:36:13;7.00;99.90
19943;DHT22;10133;50.956;17.276;2023-02-18T06:38:42;7.00;99.90
19943;DHT22;10133;50.956;17.276;2023-02-18T06:41:11;7.10;99.90
19943;DHT22;10133;50.956;17.276;2023-02-18T06:43:38;7.10;99.90
19943;DHT22;10133;50.956;17.276;2023-02-18T06:46:05;7.20;99.90
19943;DHT22;10133;50.956;17.276;2023-02-18T06:48:32;7.20;99.90
19943;DHT22;10133;50.956;17.276;2023-02-18T06:50:59;7.30;99.90
19943;DHT22;10133;50.956;17.276;2023-02-18T06:53:26;7.20;99.90
19943;DHT22;10133;50.956;17.276;2023-02-18T06:55:53;7.20;99.90
19943;DHT22;10133;50.956;17.276;2023-02-18T06:58:20;7.20;99.90
19943;DHT22;10133;50.956;17.276;2023-02-18T07:00:49;7.30;99.90
19943;DHT22;10133;50.956;17.276;2023-02-18T07:03:16;7.20;99.90
19943;DHT22;10133;50.956;17.276;2023-02-18T07:05:43;7.30;99.90
19943;DHT22;10133;50.956;17.276;2023-02-18T07:08:10;7.30;99.90
19943;DHT22;10133;50.956;17.276;2023-02-18T07:10:37;7.30;99.90
19943;DHT22;10133;50.956;17.276;2023-02-18T07:13:04;7.30;99.90
19943;DHT22;10133;50.956;17.276;2023-02-18T07:15:31;7.30;99.90
19943;DHT22;10133;50.956;17.276;2023-02-18T07:17:58;7.30;99.90
19943;DHT22;10133;50.956;17.276;2023-02-18T07:20:25;7.30;99.90
19943;DHT22;10133;50.956;17.276;2023-02-18T07:22:53;7.40;99.90
19943;DHT22;10133;50.956;17.276;2023-02-18T07:25:20;7.40;99.90
19943;DHT22;10133;50.956;17.276;2023-02-18T07:27:49;7.40;99.90
19943;DHT22;10133;50.956;17.276;2023-02-18T07:30:17;7.40;99.90
19943;DHT22;10133;50.956;17.276;2023-02-18T07:32:44;7.40;99.90
19943;DHT22;10133;50.956;17.276;2023-02-18T07:35:15;7.40;99.90
19943;DHT22;10133;50.956;17.276;2023-02-18T07:37:46;7.50;99.90
19943;DHT22;10133;50.956;17.276;2023-02-18T07:40:16;7.50;99.90
19943;DHT22;10133;50.956;17.276;2023-02-18T07:42:43;7.50;99.90
19943;DHT22;10133;50.956;17.276;2023-02-18T07:45:11;7.50;99.90
19943;DHT22;10133;50.956;17.276;2023-02-18T07:47:38;7.50;99.90
19943;DHT22;10133;50.956;17.276;2023-02-18T07:50:05;7.50;99.90
19943;DHT22;10133;50.956;17.276;2023-02-18T07:52:33;7.50;99.90
19943;DHT22;10133;50.956;17.276;2023-02-18T07:55:00;7.60;99.90
19943;DHT22;10133;50.956;17.276;2023-02-18T07:57:27;7.60;99.90
19943;DHT22;10133;50.956;17.276;2023-02-18T07:59:54;7.70;99.90
19943;DHT22;10133;50.956;17.276;2023-02-18T08:02:22;7.70;99.90
19943;DHT22;10133;50.956;17.276;2023-02-18T08:04:49;7.70;99.90
19943;DHT22;10133;50.956;17.276;2023-02-18T08:07:17;7.80;99.90
19943;DHT22;10133;50.956;17.276;2023-02-18T08:09:45;7.90;99.90
19943;DHT22;10133;50.956;17.276;2023-02-18T08:12:12;7.90;99.90
19943;DHT22;10133;50.956;17.276;2023-02-18T08:14:39;7.90;99.90
19943;DHT22;10133;50.956;17.276;2023-02-18T08:17:07;8.00;99.90
19943;DHT22;10133;50.956;17.276;2023-02-18T08:19:34;8.00;99.90
19943;DHT22;10133;50.956;17.276;2023-02-18T08:22:01;8.00;99.90
19943;DHT22;10133;50.956;17.276;2023-02-18T08:24:28;8.00;99.90
19943;DHT22;10133;50.956;17.276;2023-02-18T08:26:55;8.10;99.90
19943;DHT22;10133;50.956;17.276;2023-02-18T08:29:27;8.10;99.90
19943;DHT22;10133;50.956;17.276;2023-02-18T08:31:55;8.10;99.90
19943;DHT22;10133;50.956;17.276;2023-02-18T08:34:24;8.20;99.90
19943;DHT22;10133;50.956;17.276;2023-02-18T08:36:51;8.30;99.90
19943;DHT22;10133;50.956;17.276;2023-02-18T08:39:18;8.40;99.90
19943;DHT22;10133;50.956;17.276;2023-02-18T08:41:45;8.50;99.90
19943;DHT22;10133;50.956;17.276;2023-02-18T08:44:12;8.50;99.90
19943;DHT22;10133;50.956;17.276;2023-02-18T08:46:39;8.70;99.90
19943;DHT22;10133;50.956;17.276;2023-02-18T08:49:05;8.70;99.90
19943;DHT22;10133;50.956;17.276;2023-02-18T08:51:32;8.90;99.90
19943;DHT22;10133;50.956;17.276;2023-02-18T08:54:00;9.10;99.90
19943;DHT22;10133;50.956;17.276;2023-02-18T08:56:27;9.10;99.90
19943;DHT22;10133;50.956;17.276;2023-02-18T08:58:54;9.20;99.90
19943;DHT22;10133;50.956;17.276;2023-02-18T09:01:21;9.30;99.90
19943;DHT22;10133;50.956;17.276;2023-02-18T09:03:48;9.40;99.90
19943;DHT22;10133;50.956;17.276;2023-02-18T09:06:15;9.40;99.90
19943;DHT22;10133;50.956;17.276;2023-02-18T09:08:42;9.40;99.90
19943;DHT22;10133;50.956;17.276;2023-02-18T09:11:09;9.20;99.90
19943;DHT22;10133;50.956;17.276;2023-02-18T09:13:37;9.20;99.90
19943;DHT22;10133;50.956;17.276;2023-02-18T09:16:10;9.10;99.90
19943;DHT22;10133;50.956;17.276;2023-02-18T09:18:38;9.00;99.90
19943;DHT22;10133;50.956;17.276;2023-02-18T09:21:06;8.90;99.90
19943;DHT22;10133;50.956;17.276;2023-02-18T09:23:35;8.80;99.90
19943;DHT22;10133;50.956;17.276;2023-02-18T09:26:08;8.80;99.90
19943;DHT22;10133;50.956;17.276;2023-02-18T09:28:36;8.70;99.90
19943;DHT22;10133;50.956;17.276;2023-02-18T09:31:13;8.80;99.90
19943;DHT22;10133;50.956;17.276;2023-02-18T09:33:48;8.80;99.90
19943;DHT22;10133;50.956;17.276;2023-02-18T09:36:16;8.90;99.90
19943;DHT22;10133;50.956;17.276;2023-02-18T09:38:43;8.90;99.90
19943;DHT22;10133;50.956;17.276;2023-02-18T09:41:46;9.00;99.90
19943;DHT22;10133;50.956;17.276;2023-02-18T09:44:42;9.10;99.90
19943;DHT22;10133;50.956;17.276;2023-02-18T09:49:51;9.40;99.90
19943;DHT22;10133;50.956;17.276;2023-02-18T09:52:27;9.60;99.90
19943;DHT22;10133;50.956;17.276;2023-02-18T09:54:55;9.90;99.90
19943;DHT22;10133;50.956;17.276;2023-02-18T09:57:29;10.00;99.90
19943;DHT22;10133;50.956;17.276;2023-02-18T10:00:06;10.20;99.90
19943;DHT22;10133;50.956;17.276;2023-02-18T10:02:38;10.50;99.90
19943;DHT22;10133;50.956;17.276;2023-02-18T10:05:06;10.70;99.90
19943;DHT22;10133;50.956;17.276;2023-02-18T10:07:38;10.80;99.90
19943;DHT22;10133;50.956;17.276;2023-02-18T10:10:21;10.90;99.90
19943;DHT22;10133;50.956;17.276;2023-02-18T10:12:51;11.00;99.90
19943;DHT22;10133;50.956;17.276;2023-02-18T10:15:22;11.10;99.90
19943;DHT22;10133;50.956;17.276;2023-02-18T10:17:55;11.00;99.90
19943;DHT22;10133;50.956;17.276;2023-02-18T10:20:25;10.80;99.90
19943;DHT22;10133;50.956;17.276;2023-02-18T10:22:54;10.70;99.90
19943;DHT22;10133;50.956;17.276;2023-02-18T10:25:23;10.50;99.90
19943;DHT22;10133;50.956;17.276;2023-02-18T10:27:51;10.30;99.90
19943;DHT22;10133;50.956;17.276;2023-02-18T10:30:45;10.20;99.90
19943;DHT22;10133;50.956;17.276;2023-02-18T10:43:41;9.70;99.90
19943;DHT22;10133;50.956;17.276;2023-02-18T10:52:02;9.60;99.90
19943;DHT22;10133;50.956;17.276;2023-02-18T10:57:30;9.40;99.90
19943;DHT22;10133;50.956;17.276;2023-02-18T11:02:30;9.30;99.90
19943;DHT22;10133;50.956;17.276;2023-02-18T11:04:59;9.30;99.90
19943;DHT22;10133;50.956;17.276;2023-02-18T11:07:33;9.30;99.90
19943;DHT22;10133;50.956;17.276;2023-02-18T11:10:14;9.20;99.90
19943;DHT22;10133;50.956;17.276;2023-02-18T11:12:50;9.10;99.90
19943;DHT22;10133;50.956;17.276;2023-02-18T11:15:21;9.00;99.90
19943;DHT22;10133;50.956;17.276;2023-02-18T11:17:52;9.00;99.90
19943;DHT22;10133;50.956;17.276;2023-02-18T11:23:14;9.00;99.90
19943;DHT22;10133;50.956;17.276;2023-02-18T11:25:41;9.00;99.90
19943;DHT22;10133;50.956;17.276;2023-02-18T11:30:49;9.00;99.90
19943;DHT22;10133;50.956;17.276;2023-02-18T11:33:38;9.00;99.90
19943;DHT22;10133;50.956;17.276;2023-02-18T11:38:56;9.00;99.90
19943;DHT22;10133;50.956;17.276;2023-02-18T11:41:37;8.90;99.90
19943;DHT22;10133;50.956;17.276;2023-02-18T11:44:16;8.80;99.90
19943;DHT22;10133;50.956;17.276;2023-02-18T11:49:41;8.70;99.90
19943;DHT22;10133;50.956;17.276;2023-02-18T11:55:13;8.60;99.90
19943;DHT22;10133;50.956;17.276;2023-02-18T11:57:47;8.60;99.90
19943;DHT22;10133;50.956;17.276;2023-02-18T12:02:57;8.50;99.90
19943;DHT22;10133;50.956;17.276;2023-02-18T12:05:28;8.50;99.90
19943;DHT22;10133;50.956;17.276;2023-02-18T12:08:12;8.50;99.90
19943;DHT22;10133;50.956;17.276;2023-02-18T12:10:48;8.50;99.90
19943;DHT22;10133;50.956;17.276;2023-02-18T12:13:34;8.40;99.90
19943;DHT22;10133;50.956;17.276;2023-02-18T12:24:57;8.10;99.90
19943;DHT22;10133;50.956;17.276;2023-02-18T12:38:52;8.10;99.90
19943;DHT22;10133;50.956;17.276;2023-02-18T12:41:38;8.10;99.90
19943;DHT22;10133;50.956;17.276;2023-02-18T12:47:21;8.10;99.90
19943;DHT22;10133;50.956;17.276;2023-02-18T13:12:34;7.80;99.90
19943;DHT22;10133;50.956;17.276;2023-02-18T13:15:20;7.80;99.90
19943;DHT22;10133;50.956;17.276;2023-02-18T13:17:50;7.80;99.90
19943;DHT22;10133;50.956;17.276;2023-02-18T13:20:24;7.70;99.90
19943;DHT22;10133;50.956;17.276;2023-02-18T13:22:52;7.70;99.90
19943;DHT22;10133;50.956;17.276;2023-02-18T13:25:20;7.70;99.90
19943;DHT22;10133;50.956;17.276;2023-02-18T13:33:40;7.60;99.90
19943;DHT22;10133;50.956;17.276;2023-02-18T13:39:05;7.50;99.90
19943;DHT22;10133;50.956;17.276;2023-02-18T13:41:41;7.50;99.90
19943;DHT22;10133;50.956;17.276;2023-02-18T13:46:57;7.50;99.90
19943;DHT22;10133;50.956;17.276;2023-02-18T13:49:36;7.50;99.90
19943;DHT22;10133;50.956;17.276;2023-02-18T13:52:04;7.40;99.90
19943;DHT22;10133;50.956;17.276;2023-02-18T13:54:42;7.50;99.90
19943;DHT22;10133;50.956;17.276;2023-02-18T13:57:14;7.50;99.90
19943;DHT22;10133;50.956;17.276;2023-02-18T13:59:44;7.50;99.90
19943;DHT22;10133;50.956;17.276;2023-02-18T14:31:34;7.30;99.90
19943;DHT22;10133;50.956;17.276;2023-02-18T14:45:08;7.50;99.90
19943;DHT22;10133;50.956;17.276;2023-02-18T14:48:05;7.50;99.90
19943;DHT22;10133;50.956;17.276;2023-02-18T14:50:43;7.60;99.90
19943;DHT22;10133;50.956;17.276;2023-02-18T14:53:14;7.70;99.90
19943;DHT22;10133;50.956;17.276;2023-02-18T14:55:49;7.80;99.90
19943;DHT22;10133;50.956;17.276;2023-02-18T14:58:30;7.90;99.90
19943;DHT22;10133;50.956;17.276;2023-02-18T15:03:52;8.00;99.90
19943;DHT22;10133;50.956;17.276;2023-02-18T15:06:27;8.10;99.90
19943;DHT22;10133;50.956;17.276;2023-02-18T15:09:00;8.20;99.90
19943;DHT22;10133;50.956;17.276;2023-02-18T15:11:44;8.30;99.90
19943;DHT22;10133;50.956;17.276;2023-02-18T15:14:20;8.40;99.90
19943;DHT22;10133;50.956;17.276;2023-02-18T15:16:49;8.40;99.90
19943;DHT22;10133;50.956;17.276;2023-02-18T15:19:19;8.50;99.90
19943;DHT22;10133;50.956;17.276;2023-02-18T15:21:51;8.60;99.90
19943;DHT22;10133;50.956;17.276;2023-02-18T15:24:35;8.70;99.90
19943;DHT22;10133;50.956;17.276;2023-02-18T15:27:14;8.80;99.90
19943;DHT22;10133;50.956;17.276;2023-02-18T15:29:42;8.90;99.90
19943;DHT22;10133;50.956;17.276;2023-02-18T15:32:28;9.00;99.90
19943;DHT22;10133;50.956;17.276;2023-02-18T15:34:59;9.10;99.90
19943;DHT22;10133;50.956;17.276;2023-02-18T15:37:28;9.10;99.90
19943;DHT22;10133;50.956;17.276;2023-02-18T15:39:55;9.20;99.90
19943;DHT22;10133;50.956;17.276;2023-02-18T15:42:33;9.30;99.90
19943;DHT22;10133;50.956;17.276;2023-02-18T15:45:16;9.30;99.90
19943;DHT22;10133;50.956;17.276;2023-02-18T15:47:48;9.30;99.90
19943;DHT22;10133;50.956;17.276;2023-02-18T15:52:48;9.40;99.90
19943;DHT22;10133;50.956;17.276;2023-02-18T15:55:26;9.50;99.90
19943;DHT22;10133;50.956;17.276;2023-02-18T15:57:56;9.50;99.90
19943;DHT22;10133;50.956;17.276;2023-02-18T16:00:29;9.50;99.90
19943;DHT22;10133;50.956;17.276;2023-02-18T16:03:10;9.50;99.90
19943;DHT22;10133;50.956;17.276;2023-02-18T16:05:38;9.50;99.90
19943;DHT22;10133;50.956;17.276;2023-02-18T16:08:25;9.50;99.90
19943;DHT22;10133;50.956;17.276;2023-02-18T16:11:07;9.60;99.90
19943;DHT22;10133;50.956;17.276;2023-02-18T16:13:36;9.60;99.90
19943;DHT22;10133;50.956;17.276;2023-02-18T16:16:28;9.60;99.90
19943;DHT22;10133;50.956;17.276;2023-02-18T16:18:55;9.70;99.90
19943;DHT22;10133;50.956;17.276;2023-02-18T16:26:50;9.70;99.90
19943;DHT22;10133;50.956;17.276;2023-02-18T16:29:24;9.80;99.90
19943;DHT22;10133;50.956;17.276;2023-02-18T16:31:51;9.90;99.90
19943;DHT22;10133;50.956;17.276;2023-02-18T16:34:18;9.90;99.90
19943;DHT22;10133;50.956;17.276;2023-02-18T16:36:47;9.90;99.90
19943;DHT22;10133;50.956;17.276;2023-02-18T16:39:34;10.00;99.90
19943;DHT22;10133;50.956;17.276;2023-02-18T16:42:09;10.00;99.90
19943;DHT22;10133;50.956;17.276;2023-02-18T16:44:40;10.00;99.90
19943;DHT22;10133;50.956;17.276;2023-02-18T16:47:15;10.10;99.90
19943;DHT22;10133;50.956;17.276;2023-02-18T16:49:45;10.10;99.90
19943;DHT22;10133;50.956;17.276;2023-02-18T16:52:15;10.20;99.90
19943;DHT22;10133;50.956;17.276;2023-02-18T16:54:46;10.20;99.90
19943;DHT22;10133;50.956;17.276;2023-02-18T16:57:16;10.20;99.90
19943;DHT22;10133;50.956;17.276;2023-02-18T16:59:44;10.20;99.90
19943;DHT22;10133;50.956;17.276;2023-02-18T17:02:18;10.20;99.90
19943;DHT22;10133;50.956;17.276;2023-02-18T17:04:46;10.20;99.90
19943;DHT22;10133;50.956;17.276;2023-02-18T17:07:13;10.30;99.90
19943;DHT22;10133;50.956;17.276;2023-02-18T17:09:41;10.30;99.90
19943;DHT22;10133;50.956;17.276;2023-02-18T17:12:11;10.30;99.90
19943;DHT22;10133;50.956;17.276;2023-02-18T17:14:44;10.20;99.90
19943;DHT22;10133;50.956;17.276;2023-02-18T17:17:12;10.20;99.90
19943;DHT22;10133;50.956;17.276;2023-02-18T17:19:39;10.30;99.90
19943;DHT22;10133;50.956;17.276;2023-02-18T17:22:08;10.30;99.90
19943;DHT22;10133;50.956;17.276;2023-02-18T17:24:38;10.30;99.90
19943;DHT22;10133;50.956;17.276;2023-02-18T17:27:09;10.20;99.90
19943;DHT22;10133;50.956;17.276;2023-02-18T17:29:38;10.20;99.90
19943;DHT22;10133;50.956;17.276;2023-02-18T17:32:06;10.30;99.90
19943;DHT22;10133;50.956;17.276;2023-02-18T17:34:34;10.20;99.90
19943;DHT22;10133;50.956;17.276;2023-02-18T17:37:05;10.20;99.90
19943;DHT22;10133;50.956;17.276;2023-02-18T17:39:35;10.30;99.90
19943;DHT22;10133;50.956;17.276;2023-02-18T17:42:03;10.30;99.90
19943;DHT22;10133;50.956;17.276;2023-02-18T17:44:33;10.30;99.90
19943;DHT22;10133;50.956;17.276;2023-02-18T17:47:02;10.30;99.90
19943;DHT22;10133;50.956;17.276;2023-02-18T17:49:29;10.30;99.90
19943;DHT22;10133;50.956;17.276;2023-02-18T17:51:57;10.30;99.90
19943;DHT22;10133;50.956;17.276;2023-02-18T17:54:26;10.30;99.90
19943;DHT22;10133;50.956;17.276;2023-02-18T17:56:57;10.30;99.90
19943;DHT22;10133;50.956;17.276;2023-02-18T17:59:26;10.30;99.90
19943;DHT22;10133;50.956;17.276;2023-02-18T18:01:55;10.30;99.90
19943;DHT22;10133;50.956;17.276;2023-02-18T18:04:22;10.30;99.90
19943;DHT22;10133;50.956;17.276;2023-02-18T18:06:49;10.30;99.90
19943;DHT22;10133;50.956;17.276;2023-02-18T18:09:17;10.30;99.90
19943;DHT22;10133;50.956;17.276;2023-02-18T18:11:44;10.30;99.90
19943;DHT22;10133;50.956;17.276;2023-02-18T18:14:13;10.20;99.90
19943;DHT22;10133;50.956;17.276;2023-02-18T18:16:40;10.20;99.90
19943;DHT22;10133;50.956;17.276;2023-02-18T18:19:07;10.20;99.90
19943;DHT22;10133;50.956;17.276;2023-02-18T18:21:36;10.20;99.90
19943;DHT22;10133;50.956;17.276;2023-02-18T18:24:03;10.20;99.90
19943;DHT22;10133;50.956;17.276;2023-02-18T18:26:30;10.20;99.90
19943;DHT22;10133;50.956;17.276;2023-02-18T18:28:57;10.20;99.90
19943;DHT22;10133;50.956;17.276;2023-02-18T18:31:24;10.20;99.90
19943;DHT22;10133;50.956;17.276;2023-02-18T18:33:52;10.10;99.90
19943;DHT22;10133;50.956;17.276;2023-02-18T18:36:20;10.10;99.90
19943;DHT22;10133;50.956;17.276;2023-02-18T18:38:50;10.10;99.90
19943;DHT22;10133;50.956;17.276;2023-02-18T18:41:19;10.10;99.90
19943;DHT22;10133;50.956;17.276;2023-02-18T18:43:47;10.10;99.90
19943;DHT22;10133;50.956;17.276;2023-02-18T18:46:16;10.00;99.90
19943;DHT22;10133;50.956;17.276;2023-02-18T18:48:43;10.00;99.90
19943;DHT22;10133;50.956;17.276;2023-02-18T18:51:24;10.00;99.90
19943;DHT22;10133;50.956;17.276;2023-02-18T18:53:53;10.10;99.90